TUI54T EDDV-LEMH
Flight info
| Callsign | TUI54T |
|---|---|
| Flight time | 2h 11m |
| Altitude | 39000 |
| Route | POVEL3H POVEL Z94 VAGAB Y231 AMOSA N869 TEDGO N851 LOKTA DCT SONOM DCT GODRA DCT BIBAN DCT RONOP DCT VEVAR DCT RIXOT |
| Aircraft | B738/M-SDE2E3FGHIRWXY/LB1 |
Departure
| Time | 2026-04-30 13:04 |
|---|---|
| Airport | Hannover Airport (EDDV) |
Arrival
| Time | 2026-04-30 15:16 |
|---|---|
| Airport | Menorca Airport (LEMH) |
| Time | Latitude | Longitude | Altitude | Speed | Heading |
|---|---|---|---|---|---|
| 2026-04-30 12:40 | 52.45738 | 9.69963 | 177 ft | 0 kts | 32° |
| 2026-04-30 12:57 | 52.45731 | 9.69956 | 177 ft | 4 kts | 32° |
| 2026-04-30 12:57 | 52.45708 | 9.69933 | 177 ft | 4 kts | 24° |
| 2026-04-30 12:58 | 52.45684 | 9.69925 | 177 ft | 4 kts | 343° |
| 2026-04-30 12:58 | 52.45669 | 9.69944 | 177 ft | 2 kts | 274° |
| 2026-04-30 12:58 | 52.45668 | 9.69954 | 177 ft | 0 kts | 273° |
| 2026-04-30 13:00 | 52.45669 | 9.69946 | 177 ft | 2 kts | 273° |
| 2026-04-30 13:00 | 52.45668 | 9.69881 | 177 ft | 9 kts | 256° |
| 2026-04-30 13:01 | 52.45620 | 9.69814 | 177 ft | 10 kts | 224° |
| 2026-04-30 13:01 | 52.45608 | 9.69667 | 177 ft | 17 kts | 272° |
| 2026-04-30 13:01 | 52.45614 | 9.69440 | 177 ft | 23 kts | 272° |
| 2026-04-30 13:01 | 52.45622 | 9.69140 | 177 ft | 29 kts | 272° |
| 2026-04-30 13:02 | 52.45632 | 9.68792 | 177 ft | 33 kts | 271° |
| 2026-04-30 13:02 | 52.45639 | 9.68408 | 177 ft | 33 kts | 272° |
| 2026-04-30 13:02 | 52.45653 | 9.68052 | 177 ft | 23 kts | 272° |
| 2026-04-30 13:02 | 52.45658 | 9.67830 | 177 ft | 13 kts | 266° |
| 2026-04-30 13:03 | 52.45610 | 9.67714 | 178 ft | 13 kts | 202° |
| 2026-04-30 13:03 | 52.45525 | 9.67724 | 182 ft | 12 kts | 161° |
| 2026-04-30 13:03 | 52.45495 | 9.67847 | 182 ft | 14 kts | 93° |
| 2026-04-30 13:03 | 52.45483 | 9.68271 | 180 ft | 70 kts | 92° |
| 2026-04-30 13:04 | 52.45450 | 9.69432 | 184 ft | 131 kts | 92° |
| 2026-04-30 13:04 | 52.45401 | 9.71152 | 442 ft | 158 kts | 93° |
| 2026-04-30 13:04 | 52.45319 | 9.72940 | 1277 ft | 158 kts | 95° |
| 2026-04-30 13:04 | 52.45276 | 9.74753 | 2004 ft | 165 kts | 94° |
| 2026-04-30 13:05 | 52.45215 | 9.76755 | 2374 ft | 188 kts | 93° |
| 2026-04-30 13:05 | 52.45169 | 9.78947 | 2911 ft | 197 kts | 92° |
| 2026-04-30 13:05 | 52.45112 | 9.81221 | 3558 ft | 200 kts | 94° |
| 2026-04-30 13:06 | 52.44983 | 9.85834 | 4828 ft | 204 kts | 94° |
| 2026-04-30 13:06 | 52.44911 | 9.88157 | 5521 ft | 204 kts | 93° |
| 2026-04-30 13:06 | 52.44840 | 9.90490 | 6180 ft | 205 kts | 92° |
| 2026-04-30 13:06 | 52.44761 | 9.92838 | 6747 ft | 209 kts | 96° |
| 2026-04-30 13:07 | 52.44282 | 9.95140 | 7095 ft | 225 kts | 116° |
| 2026-04-30 13:07 | 52.43476 | 9.97427 | 7452 ft | 240 kts | 117° |
| 2026-04-30 13:07 | 52.42595 | 9.99905 | 7767 ft | 259 kts | 117° |
| 2026-04-30 13:07 | 52.41679 | 10.02474 | 8473 ft | 262 kts | 116° |
| 2026-04-30 13:08 | 52.40759 | 10.05051 | 9229 ft | 264 kts | 116° |
| 2026-04-30 13:08 | 52.39826 | 10.07667 | 9965 ft | 267 kts | 116° |
| 2026-04-30 13:08 | 52.38887 | 10.10302 | 10662 ft | 270 kts | 115° |
| 2026-04-30 13:08 | 52.37924 | 10.13020 | 10914 ft | 291 kts | 116° |
| 2026-04-30 13:09 | 52.36875 | 10.15984 | 11090 ft | 312 kts | 116° |
| 2026-04-30 13:09 | 52.35757 | 10.19131 | 11457 ft | 325 kts | 116° |
| 2026-04-30 13:09 | 52.34593 | 10.22392 | 12096 ft | 329 kts | 116° |
| 2026-04-30 13:09 | 52.33448 | 10.25591 | 12805 ft | 332 kts | 116° |
| 2026-04-30 13:10 | 52.32278 | 10.28860 | 13518 ft | 335 kts | 116° |
| 2026-04-30 13:10 | 52.31096 | 10.32162 | 14250 ft | 338 kts | 116° |
| 2026-04-30 13:10 | 52.29899 | 10.35503 | 14866 ft | 343 kts | 116° |
| 2026-04-30 13:10 | 52.28685 | 10.38889 | 15525 ft | 346 kts | 116° |
| 2026-04-30 13:11 | 52.27462 | 10.42296 | 16165 ft | 350 kts | 116° |
| 2026-04-30 13:11 | 52.26223 | 10.45742 | 16794 ft | 355 kts | 116° |
| 2026-04-30 13:11 | 52.24966 | 10.49238 | 17435 ft | 359 kts | 115° |
| 2026-04-30 13:11 | 52.23694 | 10.52767 | 18093 ft | 362 kts | 115° |
| 2026-04-30 13:12 | 52.22410 | 10.56324 | 18731 ft | 366 kts | 115° |
| 2026-04-30 13:12 | 52.21113 | 10.59914 | 19270 ft | 370 kts | 115° |
| 2026-04-30 13:12 | 52.19798 | 10.63549 | 19816 ft | 373 kts | 116° |
| 2026-04-30 13:13 | 52.17150 | 10.70850 | 20900 ft | 379 kts | 116° |
| 2026-04-30 13:13 | 52.15800 | 10.74566 | 21433 ft | 383 kts | 116° |
| 2026-04-30 13:13 | 52.12913 | 10.81968 | 22428 ft | 397 kts | 128° |
| 2026-04-30 13:14 | 52.10719 | 10.84796 | 22938 ft | 410 kts | 145° |
| 2026-04-30 13:14 | 52.08183 | 10.87023 | 23477 ft | 415 kts | 147° |
| 2026-04-30 13:14 | 52.03008 | 10.91352 | 24290 ft | 424 kts | 147° |
| 2026-04-30 13:15 | 52.00385 | 10.93563 | 24735 ft | 426 kts | 147° |
| 2026-04-30 13:15 | 51.95101 | 10.98081 | 25559 ft | 431 kts | 147° |
| 2026-04-30 13:15 | 51.92445 | 11.00367 | 25948 ft | 434 kts | 147° |
| 2026-04-30 13:16 | 51.89767 | 11.02670 | 26345 ft | 436 kts | 147° |
| 2026-04-30 13:16 | 51.87071 | 11.04982 | 26733 ft | 439 kts | 147° |
| 2026-04-30 13:16 | 51.84366 | 11.07301 | 27110 ft | 441 kts | 147° |
| 2026-04-30 13:17 | 51.78904 | 11.11984 | 27840 ft | 447 kts | 147° |
| 2026-04-30 13:17 | 51.76145 | 11.14346 | 28199 ft | 449 kts | 147° |
| 2026-04-30 13:17 | 51.71542 | 11.18277 | 28821 ft | 452 kts | 147° |
| 2026-04-30 13:18 | 51.67808 | 11.21461 | 29295 ft | 456 kts | 146° |
| 2026-04-30 13:18 | 51.62209 | 11.26224 | 29923 ft | 460 kts | 146° |
| 2026-04-30 13:18 | 51.59367 | 11.28631 | 30250 ft | 462 kts | 146° |
| 2026-04-30 13:19 | 51.56518 | 11.31038 | 30545 ft | 464 kts | 146° |
| 2026-04-30 13:19 | 51.53649 | 11.33458 | 30778 ft | 467 kts | 146° |
| 2026-04-30 13:19 | 51.50769 | 11.35885 | 31022 ft | 469 kts | 146° |
| 2026-04-30 13:19 | 51.47875 | 11.38320 | 31397 ft | 467 kts | 146° |
| 2026-04-30 13:20 | 51.45981 | 11.39911 | 31690 ft | 465 kts | 146° |
| 2026-04-30 13:20 | 51.43048 | 11.42271 | 32044 ft | 468 kts | 152° |
| 2026-04-30 13:20 | 51.39906 | 11.43628 | 32228 ft | 483 kts | 169° |
| 2026-04-30 13:20 | 51.36524 | 11.43597 | 32529 ft | 492 kts | 185° |
| 2026-04-30 13:21 | 51.33197 | 11.42231 | 32907 ft | 495 kts | 195° |
| 2026-04-30 13:21 | 51.29920 | 11.40546 | 33268 ft | 494 kts | 195° |
| 2026-04-30 13:21 | 51.26651 | 11.38862 | 33538 ft | 495 kts | 195° |
| 2026-04-30 13:22 | 51.20071 | 11.35586 | 34122 ft | 495 kts | 194° |
| 2026-04-30 13:22 | 51.16784 | 11.34000 | 34456 ft | 493 kts | 194° |
| 2026-04-30 13:22 | 51.10218 | 11.30871 | 34978 ft | 493 kts | 194° |
| 2026-04-30 13:23 | 51.06933 | 11.29308 | 35220 ft | 492 kts | 194° |
| 2026-04-30 13:23 | 51.00383 | 11.26191 | 35751 ft | 491 kts | 194° |
| 2026-04-30 13:24 | 50.93852 | 11.22889 | 36180 ft | 493 kts | 202° |
| 2026-04-30 13:24 | 50.87365 | 11.19571 | 36576 ft | 489 kts | 187° |
| 2026-04-30 13:25 | 50.80699 | 11.17905 | 37076 ft | 487 kts | 186° |
| 2026-04-30 13:25 | 50.73993 | 11.16204 | 37443 ft | 488 kts | 187° |
| 2026-04-30 13:26 | 50.57198 | 11.11364 | 37430 ft | 486 kts | 188° |
| 2026-04-30 13:28 | 50.40662 | 11.06554 | 37423 ft | 481 kts | 188° |
| 2026-04-30 13:28 | 50.30830 | 11.03720 | 37428 ft | 481 kts | 188° |
| 2026-04-30 13:29 | 50.17618 | 10.99930 | 37419 ft | 484 kts | 188° |
| 2026-04-30 13:31 | 50.00958 | 10.95179 | 37414 ft | 489 kts | 188° |
| 2026-04-30 13:32 | 49.84243 | 10.90445 | 37406 ft | 490 kts | 188° |
| 2026-04-30 13:33 | 49.70836 | 10.86672 | 37387 ft | 489 kts | 188° |
| 2026-04-30 13:34 | 49.60812 | 10.83864 | 37384 ft | 487 kts | 188° |
| 2026-04-30 13:34 | 49.51038 | 10.79731 | 37373 ft | 490 kts | 209° |
| 2026-04-30 13:35 | 49.48198 | 10.76855 | 37388 ft | 489 kts | 219° |
| 2026-04-30 13:36 | 49.38832 | 10.61886 | 37389 ft | 487 kts | 227° |
| 2026-04-30 13:36 | 49.31766 | 10.50676 | 37389 ft | 487 kts | 225° |
| 2026-04-30 13:37 | 49.24535 | 10.39734 | 37395 ft | 487 kts | 226° |
| 2026-04-30 13:38 | 49.17395 | 10.28630 | 37366 ft | 488 kts | 226° |
| 2026-04-30 13:39 | 49.08495 | 10.13057 | 37347 ft | 486 kts | 233° |
| 2026-04-30 13:40 | 49.02237 | 10.00966 | 37343 ft | 486 kts | 232° |
| 2026-04-30 13:40 | 48.97995 | 9.92961 | 37340 ft | 486 kts | 232° |
| 2026-04-30 13:41 | 48.93737 | 9.84979 | 37335 ft | 486 kts | 232° |
| 2026-04-30 13:41 | 48.89480 | 9.77007 | 37326 ft | 485 kts | 232° |
| 2026-04-30 13:42 | 48.85222 | 9.69061 | 37319 ft | 485 kts | 232° |
| 2026-04-30 13:42 | 48.78830 | 9.57176 | 37287 ft | 483 kts | 231° |
| 2026-04-30 13:43 | 48.74580 | 9.49295 | 37285 ft | 483 kts | 231° |
| 2026-04-30 13:43 | 48.70317 | 9.41441 | 37277 ft | 482 kts | 231° |
| 2026-04-30 13:44 | 48.66046 | 9.33643 | 37297 ft | 481 kts | 231° |
| 2026-04-30 13:44 | 48.63801 | 9.29889 | 37276 ft | 481 kts | 220° |
| 2026-04-30 13:44 | 48.61061 | 9.27045 | 37307 ft | 478 kts | 205° |
| 2026-04-30 13:45 | 48.54737 | 9.24468 | 37308 ft | 470 kts | 182° |
| 2026-04-30 13:45 | 48.51474 | 9.24045 | 37272 ft | 471 kts | 182° |
| 2026-04-30 13:46 | 48.44940 | 9.23084 | 37262 ft | 473 kts | 184° |
| 2026-04-30 13:46 | 48.38427 | 9.21964 | 37265 ft | 474 kts | 184° |
| 2026-04-30 13:47 | 48.31851 | 9.20842 | 37268 ft | 475 kts | 184° |
| 2026-04-30 13:47 | 48.25264 | 9.19730 | 37272 ft | 476 kts | 184° |
| 2026-04-30 13:48 | 48.18668 | 9.18542 | 37251 ft | 479 kts | 189° |
| 2026-04-30 13:48 | 48.12365 | 9.15281 | 37259 ft | 482 kts | 206° |
| 2026-04-30 13:49 | 48.06450 | 9.10693 | 37257 ft | 482 kts | 206° |
| 2026-04-30 13:49 | 48.00495 | 9.06110 | 37243 ft | 481 kts | 206° |
| 2026-04-30 13:50 | 47.94528 | 9.01622 | 37241 ft | 480 kts | 206° |
| 2026-04-30 13:50 | 47.85582 | 8.94948 | 37237 ft | 478 kts | 206° |
| 2026-04-30 13:51 | 47.79647 | 8.90528 | 37241 ft | 476 kts | 206° |
| 2026-04-30 13:51 | 47.73997 | 8.85402 | 37228 ft | 475 kts | 214° |
| 2026-04-30 13:52 | 47.68599 | 8.79757 | 37231 ft | 474 kts | 214° |
| 2026-04-30 13:52 | 47.63253 | 8.74182 | 37234 ft | 472 kts | 214° |
| 2026-04-30 13:53 | 47.57859 | 8.68658 | 37235 ft | 471 kts | 214° |
| 2026-04-30 13:53 | 47.52452 | 8.63177 | 37238 ft | 470 kts | 214° |
| 2026-04-30 13:54 | 47.47057 | 8.57730 | 37246 ft | 469 kts | 214° |
| 2026-04-30 13:54 | 47.41664 | 8.52295 | 37237 ft | 469 kts | 214° |
| 2026-04-30 13:55 | 47.36279 | 8.46879 | 37242 ft | 468 kts | 214° |
| 2026-04-30 13:55 | 47.30920 | 8.41502 | 37199 ft | 468 kts | 214° |
| 2026-04-30 13:56 | 47.25537 | 8.36115 | 37214 ft | 468 kts | 214° |
| 2026-04-30 13:56 | 47.20149 | 8.30736 | 37188 ft | 468 kts | 214° |
| 2026-04-30 13:57 | 47.14768 | 8.25378 | 37179 ft | 467 kts | 214° |
| 2026-04-30 13:57 | 47.09389 | 8.20036 | 37204 ft | 466 kts | 214° |
| 2026-04-30 13:58 | 47.01330 | 8.12055 | 37207 ft | 466 kts | 214° |
| 2026-04-30 13:59 | 46.95956 | 8.06749 | 37202 ft | 466 kts | 214° |
| 2026-04-30 13:59 | 46.90568 | 8.01443 | 37176 ft | 467 kts | 214° |
| 2026-04-30 14:00 | 46.85170 | 7.96140 | 37154 ft | 468 kts | 214° |
| 2026-04-30 14:00 | 46.77061 | 7.88198 | 37165 ft | 467 kts | 215° |
| 2026-04-30 14:01 | 46.71662 | 7.82926 | 37152 ft | 466 kts | 214° |
| 2026-04-30 14:01 | 46.66312 | 7.77713 | 37159 ft | 464 kts | 214° |
| 2026-04-30 14:02 | 46.60934 | 7.72530 | 37161 ft | 464 kts | 211° |
| 2026-04-30 14:02 | 46.54980 | 7.69010 | 37166 ft | 463 kts | 195° |
| 2026-04-30 14:03 | 46.48745 | 7.66676 | 37166 ft | 462 kts | 194° |
| 2026-04-30 14:03 | 46.42515 | 7.64336 | 37167 ft | 463 kts | 195° |
| 2026-04-30 14:04 | 46.36289 | 7.61934 | 37169 ft | 463 kts | 195° |
| 2026-04-30 14:04 | 46.30059 | 7.59518 | 37169 ft | 464 kts | 195° |
| 2026-04-30 14:05 | 46.23801 | 7.57094 | 37167 ft | 466 kts | 195° |
| 2026-04-30 14:05 | 46.17528 | 7.54671 | 37174 ft | 467 kts | 195° |
| 2026-04-30 14:06 | 46.09172 | 7.51454 | 37172 ft | 467 kts | 196° |
| 2026-04-30 14:07 | 45.99764 | 7.47843 | 37154 ft | 466 kts | 196° |
| 2026-04-30 14:08 | 45.90377 | 7.44236 | 37221 ft | 463 kts | 197° |
| 2026-04-30 14:08 | 45.81134 | 7.40502 | 37242 ft | 461 kts | 197° |
| 2026-04-30 14:09 | 45.74972 | 7.38008 | 37247 ft | 459 kts | 197° |
| 2026-04-30 14:10 | 45.65752 | 7.34307 | 37233 ft | 459 kts | 197° |
| 2026-04-30 14:10 | 45.59602 | 7.31850 | 37249 ft | 458 kts | 197° |
| 2026-04-30 14:11 | 45.53473 | 7.29406 | 37242 ft | 457 kts | 198° |
| 2026-04-30 14:11 | 45.47337 | 7.26965 | 37254 ft | 458 kts | 198° |
| 2026-04-30 14:12 | 45.41199 | 7.24528 | 37256 ft | 458 kts | 198° |
| 2026-04-30 14:12 | 45.35042 | 7.22088 | 37250 ft | 460 kts | 198° |
| 2026-04-30 14:13 | 45.28863 | 7.19646 | 37228 ft | 461 kts | 198° |
| 2026-04-30 14:13 | 45.22694 | 7.17212 | 37225 ft | 461 kts | 198° |
| 2026-04-30 14:14 | 45.16549 | 7.14809 | 37188 ft | 460 kts | 197° |
| 2026-04-30 14:14 | 45.10369 | 7.12515 | 37222 ft | 459 kts | 197° |
| 2026-04-30 14:15 | 45.04177 | 7.10233 | 37212 ft | 460 kts | 197° |
| 2026-04-30 14:15 | 44.97984 | 7.07942 | 37256 ft | 460 kts | 197° |
| 2026-04-30 14:16 | 44.91802 | 7.05654 | 37265 ft | 459 kts | 198° |
| 2026-04-30 14:16 | 44.85628 | 7.03372 | 37271 ft | 459 kts | 197° |
| 2026-04-30 14:17 | 44.79459 | 7.01055 | 37267 ft | 458 kts | 201° |
| 2026-04-30 14:17 | 44.73549 | 6.97826 | 37217 ft | 454 kts | 206° |
| 2026-04-30 14:18 | 44.67750 | 6.94385 | 37226 ft | 453 kts | 206° |
| 2026-04-30 14:18 | 44.59021 | 6.89295 | 37235 ft | 453 kts | 205° |
| 2026-04-30 14:19 | 44.50289 | 6.84312 | 37234 ft | 454 kts | 205° |
| 2026-04-30 14:20 | 44.44439 | 6.80992 | 37188 ft | 453 kts | 205° |
| 2026-04-30 14:20 | 44.35679 | 6.76029 | 37210 ft | 453 kts | 205° |
| 2026-04-30 14:21 | 44.29833 | 6.72728 | 37197 ft | 453 kts | 205° |
| 2026-04-30 14:22 | 44.21077 | 6.67796 | 37190 ft | 452 kts | 205° |
| 2026-04-30 14:22 | 44.12333 | 6.62885 | 37169 ft | 451 kts | 205° |
| 2026-04-30 14:23 | 44.00742 | 6.56399 | 37173 ft | 449 kts | 205° |
| 2026-04-30 14:24 | 43.92033 | 6.51543 | 37154 ft | 449 kts | 205° |
| 2026-04-30 14:25 | 43.80475 | 6.45122 | 37165 ft | 446 kts | 205° |
| 2026-04-30 14:26 | 43.71866 | 6.40358 | 37159 ft | 445 kts | 205° |
| 2026-04-30 14:27 | 43.63224 | 6.35588 | 37151 ft | 446 kts | 205° |
| 2026-04-30 14:27 | 43.57463 | 6.32418 | 37155 ft | 446 kts | 205° |
| 2026-04-30 14:28 | 43.48802 | 6.27664 | 37166 ft | 446 kts | 205° |
| 2026-04-30 14:28 | 43.43028 | 6.24504 | 37155 ft | 446 kts | 206° |
| 2026-04-30 14:29 | 43.32480 | 6.18746 | 37152 ft | 445 kts | 206° |
| 2026-04-30 14:31 | 43.17156 | 6.10420 | 37146 ft | 444 kts | 206° |
| 2026-04-30 14:31 | 43.08573 | 6.05777 | 37152 ft | 440 kts | 206° |
| 2026-04-30 14:32 | 43.00054 | 6.01182 | 37152 ft | 437 kts | 207° |
| 2026-04-30 14:33 | 42.94404 | 5.98141 | 37152 ft | 436 kts | 207° |
| 2026-04-30 14:33 | 42.85948 | 5.93601 | 37139 ft | 435 kts | 207° |
| 2026-04-30 14:34 | 42.80356 | 5.90606 | 37146 ft | 434 kts | 207° |
| 2026-04-30 14:34 | 42.74731 | 5.87599 | 37149 ft | 434 kts | 207° |
| 2026-04-30 14:35 | 42.66277 | 5.83091 | 37142 ft | 435 kts | 207° |
| 2026-04-30 14:36 | 42.60631 | 5.80088 | 37141 ft | 436 kts | 207° |
| 2026-04-30 14:36 | 42.54966 | 5.77081 | 37139 ft | 437 kts | 207° |
| 2026-04-30 14:37 | 42.49340 | 5.74100 | 37142 ft | 437 kts | 207° |
| 2026-04-30 14:37 | 42.43664 | 5.71100 | 37141 ft | 438 kts | 207° |
| 2026-04-30 14:38 | 42.37991 | 5.68107 | 37127 ft | 438 kts | 207° |
| 2026-04-30 14:38 | 42.32313 | 5.65116 | 37130 ft | 438 kts | 207° |
| 2026-04-30 14:39 | 42.26631 | 5.62130 | 37104 ft | 437 kts | 208° |
| 2026-04-30 14:39 | 42.20963 | 5.59157 | 37123 ft | 436 kts | 207° |
| 2026-04-30 14:40 | 42.12483 | 5.54719 | 37123 ft | 435 kts | 207° |
| 2026-04-30 14:40 | 42.06882 | 5.51794 | 37129 ft | 434 kts | 207° |
| 2026-04-30 14:41 | 42.01254 | 5.48862 | 37114 ft | 433 kts | 208° |
| 2026-04-30 14:41 | 41.95635 | 5.45939 | 37114 ft | 432 kts | 208° |
| 2026-04-30 14:42 | 41.90005 | 5.43012 | 36574 ft | 437 kts | 208° |
| 2026-04-30 14:42 | 41.87176 | 5.41546 | 36021 ft | 435 kts | 208° |
| 2026-04-30 14:42 | 41.84351 | 5.40084 | 35417 ft | 435 kts | 208° |
| 2026-04-30 14:43 | 41.81530 | 5.38625 | 34805 ft | 435 kts | 208° |
| 2026-04-30 14:43 | 41.78703 | 5.37163 | 34181 ft | 436 kts | 208° |
| 2026-04-30 14:43 | 41.75871 | 5.35699 | 33477 ft | 437 kts | 208° |
| 2026-04-30 14:43 | 41.73048 | 5.34245 | 33025 ft | 431 kts | 208° |
| 2026-04-30 14:44 | 41.70296 | 5.32830 | 32555 ft | 427 kts | 208° |
| 2026-04-30 14:44 | 41.67538 | 5.31412 | 32109 ft | 423 kts | 207° |
| 2026-04-30 14:44 | 41.64801 | 5.30006 | 31637 ft | 419 kts | 208° |
| 2026-04-30 14:44 | 41.62091 | 5.28614 | 31226 ft | 414 kts | 208° |
| 2026-04-30 14:45 | 41.59411 | 5.27238 | 30791 ft | 411 kts | 208° |
| 2026-04-30 14:45 | 41.56754 | 5.25874 | 30365 ft | 407 kts | 207° |
| 2026-04-30 14:45 | 41.54117 | 5.24521 | 29896 ft | 404 kts | 207° |
| 2026-04-30 14:45 | 41.51501 | 5.23180 | 29412 ft | 401 kts | 207° |
| 2026-04-30 14:46 | 41.48912 | 5.21856 | 28973 ft | 396 kts | 207° |
| 2026-04-30 14:46 | 41.46351 | 5.20546 | 28522 ft | 392 kts | 207° |
| 2026-04-30 14:46 | 41.43817 | 5.19251 | 28077 ft | 388 kts | 207° |
| 2026-04-30 14:46 | 41.42148 | 5.18399 | 27807 ft | 385 kts | 207° |
| 2026-04-30 14:47 | 41.38820 | 5.16701 | 27224 ft | 381 kts | 207° |
| 2026-04-30 14:47 | 41.36351 | 5.15442 | 26800 ft | 378 kts | 207° |
| 2026-04-30 14:47 | 41.33904 | 5.14195 | 26380 ft | 375 kts | 207° |
| 2026-04-30 14:47 | 41.31477 | 5.12959 | 25963 ft | 372 kts | 207° |
| 2026-04-30 14:48 | 41.29100 | 5.11750 | 25555 ft | 370 kts | 206° |
| 2026-04-30 14:48 | 41.26703 | 5.10532 | 25146 ft | 368 kts | 206° |
| 2026-04-30 14:48 | 41.24321 | 5.09321 | 24737 ft | 366 kts | 206° |
| 2026-04-30 14:48 | 41.21949 | 5.08117 | 24317 ft | 364 kts | 206° |
| 2026-04-30 14:49 | 41.19590 | 5.06921 | 23923 ft | 362 kts | 206° |
| 2026-04-30 14:49 | 41.17238 | 5.05730 | 23468 ft | 361 kts | 206° |
| 2026-04-30 14:49 | 41.14898 | 5.04545 | 23012 ft | 359 kts | 206° |
| 2026-04-30 14:49 | 41.12569 | 5.03367 | 22582 ft | 356 kts | 206° |
| 2026-04-30 14:50 | 41.07968 | 5.01043 | 21766 ft | 351 kts | 206° |
| 2026-04-30 14:50 | 41.05691 | 4.99894 | 21365 ft | 349 kts | 205° |
| 2026-04-30 14:51 | 41.01204 | 4.97633 | 20573 ft | 345 kts | 205° |
| 2026-04-30 14:51 | 40.98970 | 4.96507 | 20181 ft | 343 kts | 205° |
| 2026-04-30 14:51 | 40.94526 | 4.94272 | 19415 ft | 340 kts | 205° |
| 2026-04-30 14:52 | 40.92318 | 4.93162 | 19036 ft | 339 kts | 205° |
| 2026-04-30 14:52 | 40.87912 | 4.90950 | 18236 ft | 338 kts | 205° |
| 2026-04-30 14:52 | 40.86454 | 4.90219 | 17952 ft | 337 kts | 204° |
| 2026-04-30 14:53 | 40.82088 | 4.88032 | 17137 ft | 334 kts | 204° |
| 2026-04-30 14:53 | 40.79923 | 4.86949 | 16747 ft | 332 kts | 204° |
| 2026-04-30 14:54 | 40.74943 | 4.84460 | 15884 ft | 327 kts | 204° |
| 2026-04-30 14:54 | 40.71391 | 4.82687 | 15263 ft | 324 kts | 204° |
| 2026-04-30 14:55 | 40.67215 | 4.80604 | 14531 ft | 322 kts | 203° |
| 2026-04-30 14:55 | 40.65122 | 4.79562 | 14166 ft | 320 kts | 203° |
| 2026-04-30 14:55 | 40.60264 | 4.77145 | 13238 ft | 318 kts | 203° |
| 2026-04-30 14:56 | 40.56837 | 4.75442 | 12599 ft | 315 kts | 202° |
| 2026-04-30 14:56 | 40.52750 | 4.73414 | 11850 ft | 312 kts | 202° |
| 2026-04-30 14:57 | 40.50726 | 4.72411 | 11490 ft | 310 kts | 202° |
| 2026-04-30 14:57 | 40.46695 | 4.70413 | 10764 ft | 308 kts | 202° |
| 2026-04-30 14:58 | 40.42805 | 4.68490 | 10400 ft | 297 kts | 202° |
| 2026-04-30 14:58 | 40.40830 | 4.67513 | 10167 ft | 303 kts | 202° |
| 2026-04-30 14:58 | 40.37033 | 4.65121 | 9825 ft | 300 kts | 214° |
| 2026-04-30 14:59 | 40.33694 | 4.62160 | 9605 ft | 281 kts | 215° |
| 2026-04-30 15:00 | 40.28875 | 4.57907 | 8696 ft | 277 kts | 214° |
| 2026-04-30 15:00 | 40.25696 | 4.55159 | 8400 ft | 267 kts | 213° |
| 2026-04-30 15:01 | 40.22589 | 4.52487 | 8409 ft | 272 kts | 213° |
| 2026-04-30 15:01 | 40.20991 | 4.51115 | 8415 ft | 277 kts | 213° |
| 2026-04-30 15:01 | 40.17515 | 4.49231 | 8403 ft | 275 kts | 181° |
| 2026-04-30 15:02 | 40.15603 | 4.49277 | 8401 ft | 275 kts | 180° |
| 2026-04-30 15:02 | 40.13693 | 4.49326 | 8403 ft | 275 kts | 180° |
| 2026-04-30 15:03 | 40.07845 | 4.49404 | 8411 ft | 282 kts | 181° |
| 2026-04-30 15:03 | 40.03925 | 4.49418 | 8410 ft | 281 kts | 181° |
| 2026-04-30 15:04 | 40.00023 | 4.49419 | 8409 ft | 280 kts | 181° |
| 2026-04-30 15:04 | 39.94167 | 4.49413 | 8403 ft | 281 kts | 181° |
| 2026-04-30 15:05 | 39.88280 | 4.49403 | 8279 ft | 284 kts | 181° |
| 2026-04-30 15:06 | 39.84439 | 4.49401 | 8089 ft | 269 kts | 181° |
| 2026-04-30 15:06 | 39.80757 | 4.49066 | 7590 ft | 263 kts | 194° |
| 2026-04-30 15:07 | 39.77381 | 4.47433 | 7078 ft | 260 kts | 206° |
| 2026-04-30 15:07 | 39.74262 | 4.45074 | 6553 ft | 258 kts | 213° |
| 2026-04-30 15:08 | 39.71439 | 4.42161 | 5927 ft | 260 kts | 223° |
| 2026-04-30 15:08 | 39.67998 | 4.36715 | 5104 ft | 261 kts | 236° |
| 2026-04-30 15:09 | 39.66324 | 4.32523 | 4547 ft | 262 kts | 245° |
| 2026-04-30 15:09 | 39.65213 | 4.28059 | 4016 ft | 262 kts | 255° |
| 2026-04-30 15:10 | 39.64692 | 4.23434 | 3676 ft | 253 kts | 265° |
| 2026-04-30 15:11 | 39.68671 | 4.18512 | 3257 ft | 224 kts | 2° |
| 2026-04-30 15:11 | 39.71774 | 4.18866 | 2818 ft | 222 kts | 10° |
| 2026-04-30 15:12 | 39.76112 | 4.19769 | 2092 ft | 197 kts | 9° |
| 2026-04-30 15:13 | 39.78569 | 4.20275 | 1641 ft | 158 kts | 12° |
| 2026-04-30 15:14 | 39.82469 | 4.21046 | 896 ft | 136 kts | 12° |
| 2026-04-30 15:14 | 39.85222 | 4.21656 | 312 ft | 128 kts | 11° |
| 2026-04-30 15:16 | 39.86933 | 4.22163 | 300 ft | 10 kts | 54° |
| 2026-04-30 15:17 | 39.86579 | 4.22175 | 294 ft | 18 kts | 169° |
| 2026-04-30 15:18 | 39.86529 | 4.22408 | 295 ft | 1 kts | 98° |
| 2026-04-30 15:19 | 39.86528 | 4.22416 | 296 ft | 0 kts | 98° |